Time,TemperatureF,DewpointF,PressureIn,WindDirection,WindDirectionDegrees,WindSpeedMPH,WindSpeedGustMPH,Humidity,HourlyPrecipIn,Conditions,Clouds,dailyrainin,SoftwareType,DateUTC
2013-04-08 00:03:00,54.0,44.0,30.07,South,169,0.0,0.0,69,0.00,,,0.00,,2013-04-08 04:03:00,
2013-04-08 00:12:00,54.0,44.0,30.07,South,169,0.0,0.0,69,0.00,,,0.00,,2013-04-08 04:12:00,
2013-04-08 00:23:00,54.0,44.0,30.07,South,169,0.0,0.0,69,0.00,,,0.00,,2013-04-08 04:23:00,
2013-04-08 00:34:00,53.0,43.0,30.07,South,169,0.0,0.0,70,0.00,,,0.00,,2013-04-08 04:34:00,
2013-04-08 00:44:00,53.0,43.0,30.07,South,169,0.0,0.0,70,0.00,,,0.00,,2013-04-08 04:44:00,
2013-04-08 00:53:00,53.0,43.0,30.07,South,169,0.0,0.0,70,0.00,,,0.00,,2013-04-08 04:53:00,
2013-04-08 01:02:00,53.0,44.0,30.07,South,169,0.0,0.0,71,0.00,,,0.00,,2013-04-08 05:02:00,
2013-04-08 01:12:00,53.0,44.0,30.07,South,169,0.0,0.0,71,0.00,,,0.00,,2013-04-08 05:12:00,
2013-04-08 01:22:00,53.0,44.0,30.07,South,169,0.0,0.0,71,0.00,,,0.00,,2013-04-08 05:22:00,
2013-04-08 01:32:00,52.0,43.0,30.07,South,169,0.0,0.0,72,0.00,,,0.00,,2013-04-08 05:32:00,
2013-04-08 01:42:00,52.0,43.0,30.07,South,169,0.0,0.0,72,0.00,,,0.00,,2013-04-08 05:42:00,
2013-04-08 01:53:00,52.0,43.0,30.07,South,169,0.0,0.0,72,0.00,,,0.00,,2013-04-08 05:53:00,
2013-04-08 02:02:00,52.0,44.0,30.07,South,169,0.0,0.0,73,0.00,,,0.00,,2013-04-08 06:02:00,
2013-04-08 02:12:00,52.0,44.0,30.07,South,169,0.0,0.0,73,0.00,,,0.00,,2013-04-08 06:12:00,
2013-04-08 02:22:00,52.0,44.0,30.07,South,169,0.0,0.0,73,0.00,,,0.00,,2013-04-08 06:22:00,
2013-04-08 02:32:00,49.0,43.0,30.07,South,169,0.0,0.0,79,0.00,,,0.00,,2013-04-08 06:32:00,
2013-04-08 02:42:00,49.0,43.0,30.06,South,169,0.0,0.0,80,0.00,,,0.00,,2013-04-08 06:42:00,
2013-04-08 02:43:00,49.0,43.0,30.07,South,169,0.0,0.0,79,0.00,,,0.00,,2013-04-08 06:43:00,
2013-04-08 02:52:00,49.0,43.0,30.07,South,169,0.0,0.0,79,0.00,,,0.00,,2013-04-08 06:52:00,
2013-04-08 03:02:00,49.0,43.0,30.06,South,169,0.0,0.0,80,0.00,,,0.00,,2013-04-08 07:02:00,
2013-04-08 03:12:00,49.0,43.0,30.06,South,169,0.0,0.0,80,0.00,,,0.00,,2013-04-08 07:12:00,
2013-04-08 03:22:00,49.0,43.0,30.06,South,169,0.0,0.0,80,0.00,,,0.00,,2013-04-08 07:22:00,
2013-04-08 03:33:00,49.0,43.0,30.06,South,169,0.0,0.0,80,0.00,,,0.00,,2013-04-08 07:33:00,
2013-04-08 03:53:00,49.0,43.0,30.05,South,169,0.0,0.0,80,0.00,,,0.00,,2013-04-08 07:53:00,
2013-04-08 04:02:00,49.0,42.0,30.05,South,169,0.0,0.0,78,0.00,,,0.00,,2013-04-08 08:02:00,
2013-04-08 04:12:00,49.0,42.0,30.05,South,169,0.0,0.0,78,0.00,,,0.00,,2013-04-08 08:12:00,
2013-04-08 04:22:00,49.0,42.0,30.05,South,169,0.0,0.0,78,0.00,,,0.00,,2013-04-08 08:22:00,
2013-04-08 04:33:00,49.0,42.0,30.05,South,169,0.0,0.0,78,0.00,,,0.00,,2013-04-08 08:33:00,
2013-04-08 04:42:00,48.0,43.0,30.07,South,169,0.0,0.0,83,0.00,,,0.00,,2013-04-08 08:42:00,
2013-04-08 04:52:00,48.0,43.0,30.07,South,169,0.0,0.0,83,0.00,,,0.00,,2013-04-08 08:52:00,
2013-04-08 05:02:00,47.0,42.0,30.07,South,169,0.0,0.0,83,0.00,,,0.00,,2013-04-08 09:02:00,
2013-04-08 05:12:00,47.0,42.0,30.07,South,169,0.0,0.0,83,0.00,,,0.00,,2013-04-08 09:12:00,
2013-04-08 05:23:00,47.0,42.0,30.07,South,169,0.0,0.0,83,0.00,,,0.00,,2013-04-08 09:23:00,
2013-04-08 05:33:00,46.0,42.0,30.08,South,169,0.0,2.0,86,0.00,,,0.00,,2013-04-08 09:33:00,
2013-04-08 05:43:00,46.0,42.0,30.08,South,169,0.0,2.0,86,0.00,,,0.00,,2013-04-08 09:43:00,
2013-04-08 05:53:00,46.0,42.0,30.08,South,169,0.0,2.0,86,0.00,,,0.00,,2013-04-08 09:53:00,
2013-04-08 06:03:00,45.0,42.0,30.08,South,169,0.0,1.0,89,0.00,,,0.00,,2013-04-08 10:03:00,
2013-04-08 06:13:00,45.0,42.0,30.08,South,169,0.0,1.0,89,0.00,,,0.00,,2013-04-08 10:13:00,
2013-04-08 06:23:00,45.0,42.0,30.08,South,169,0.0,1.0,89,0.00,,,0.00,,2013-04-08 10:23:00,
2013-04-08 06:33:00,47.0,43.0,30.09,SSE,150,0.0,0.0,85,0.00,,,0.00,,2013-04-08 10:33:00,
2013-04-08 06:42:00,47.0,43.0,30.09,SSE,150,0.0,0.0,85,0.00,,,0.00,,2013-04-08 10:42:00,
2013-04-08 06:53:00,47.0,43.0,30.09,SSE,150,0.0,0.0,85,0.00,,,0.00,,2013-04-08 10:53:00,
2013-04-08 07:03:00,48.0,43.0,30.10,SSE,150,0.0,0.0,83,0.00,,,0.00,,2013-04-08 11:03:00,
2013-04-08 07:12:00,48.0,43.0,30.10,SSE,150,0.0,0.0,83,0.00,,,0.00,,2013-04-08 11:12:00,
2013-04-08 07:23:00,48.0,43.0,30.10,SSE,150,0.0,0.0,83,0.00,,,0.00,,2013-04-08 11:23:00,
2013-04-08 07:32:00,48.0,43.0,30.08,SSE,150,0.0,0.0,83,0.00,,,0.00,,2013-04-08 11:32:00,
2013-04-08 07:42:00,48.0,43.0,30.08,SSE,150,0.0,0.0,83,0.00,,,0.00,,2013-04-08 11:42:00,
2013-04-08 07:53:00,48.0,43.0,30.08,SSE,150,0.0,0.0,83,0.00,,,0.00,,2013-04-08 11:53:00,
2013-04-08 08:03:00,46.0,43.0,30.10,SSE,150,0.0,0.0,88,0.00,,,0.00,,2013-04-08 12:03:00,
2013-04-08 08:12:00,46.0,43.0,30.10,SSE,150,0.0,0.0,88,0.00,,,0.00,,2013-04-08 12:12:00,
2013-04-08 08:23:00,46.0,43.0,30.10,SSE,150,0.0,0.0,88,0.00,,,0.00,,2013-04-08 12:23:00,
2013-04-08 08:33:00,46.0,43.0,30.10,SSE,150,0.0,0.0,88,0.00,,,0.00,,2013-04-08 12:33:00,
2013-04-08 09:03:00,47.0,44.0,30.11,NNE,32,0.0,1.0,90,0.00,,,0.00,,2013-04-08 13:03:00,
2013-04-08 09:12:00,47.0,44.0,30.11,NNE,32,0.0,1.0,90,0.00,,,0.00,,2013-04-08 13:12:00,
2013-04-08 09:22:00,47.0,44.0,30.11,NNE,32,0.0,1.0,90,0.00,,,0.00,,2013-04-08 13:22:00,
2013-04-08 09:32:00,52.0,47.0,30.12,NE,51,0.0,0.0,82,0.00,,,0.00,,2013-04-08 13:32:00,
2013-04-08 09:42:00,52.0,47.0,30.12,NE,51,0.0,0.0,82,0.00,,,0.00,,2013-04-08 13:42:00,
2013-04-08 09:53:00,52.0,47.0,30.12,NE,51,0.0,0.0,82,0.00,,,0.00,,2013-04-08 13:53:00,
2013-04-08 10:03:00,52.0,47.0,30.12,NE,51,0.0,0.0,82,0.00,,,0.00,,2013-04-08 14:03:00,
2013-04-08 10:33:00,61.0,50.0,30.09,East,92,0.0,2.0,66,0.00,,,0.00,,2013-04-08 14:33:00,
2013-04-08 10:43:00,61.0,50.0,30.09,East,92,0.0,2.0,66,0.00,,,0.00,,2013-04-08 14:43:00,
2013-04-08 10:52:00,61.0,50.0,30.09,East,92,0.0,2.0,66,0.00,,,0.00,,2013-04-08 14:52:00,
2013-04-08 11:02:00,63.0,51.0,30.11,ESE,104,0.0,3.0,64,0.00,,,0.00,,2013-04-08 15:02:00,
2013-04-08 11:12:00,63.0,51.0,30.11,ESE,104,0.0,3.0,64,0.00,,,0.00,,2013-04-08 15:12:00,
2013-04-08 11:22:00,63.0,51.0,30.11,ESE,104,0.0,3.0,64,0.00,,,0.00,,2013-04-08 15:22:00,
2013-04-08 11:34:00,68.0,52.0,30.11,East,80,2.0,5.0,56,0.00,,,0.00,,2013-04-08 15:34:00,
2013-04-08 11:43:00,68.0,52.0,30.11,East,80,2.0,5.0,56,0.00,,,0.00,,2013-04-08 15:43:00,
2013-04-08 11:53:00,68.0,52.0,30.11,East,80,2.0,5.0,56,0.00,,,0.00,,2013-04-08 15:53:00,
2013-04-08 12:03:00,67.0,50.0,30.11,East,79,2.0,12.0,55,0.00,,,0.00,,2013-04-08 16:03:00,
2013-04-08 12:13:00,67.0,50.0,30.11,East,79,2.0,12.0,55,0.00,,,0.00,,2013-04-08 16:13:00,
2013-04-08 12:23:00,67.0,50.0,30.11,East,79,2.0,12.0,55,0.00,,,0.00,,2013-04-08 16:23:00,
2013-04-08 12:33:00,67.0,50.0,30.11,East,79,2.0,12.0,55,0.00,,,0.00,,2013-04-08 16:33:00,
2013-04-08 12:42:00,70.0,49.0,30.09,East,100,5.0,13.0,48,0.00,,,0.00,,2013-04-08 16:42:00,
2013-04-08 12:54:00,70.0,49.0,30.09,East,100,5.0,13.0,48,0.00,,,0.00,,2013-04-08 16:54:00,
2013-04-08 13:03:00,70.0,49.0,30.09,ENE,73,3.0,11.0,48,0.00,,,0.00,,2013-04-08 17:03:00,
2013-04-08 13:12:00,70.0,49.0,30.09,ENE,73,3.0,11.0,48,0.00,,,0.00,,2013-04-08 17:12:00,
2013-04-08 13:23:00,70.0,49.0,30.09,ENE,73,3.0,11.0,48,0.00,,,0.00,,2013-04-08 17:23:00,
2013-04-08 13:32:00,70.0,50.0,30.09,East,96,3.0,14.0,49,0.00,,,0.00,,2013-04-08 17:32:00,
2013-04-08 13:43:00,70.0,50.0,30.09,East,96,3.0,14.0,49,0.00,,,0.00,,2013-04-08 17:43:00,
2013-04-08 13:53:00,70.0,50.0,30.09,East,96,3.0,14.0,49,0.00,,,0.00,,2013-04-08 17:53:00,
2013-04-08 14:02:00,71.0,50.0,30.08,East,85,2.0,10.0,47,0.00,,,0.00,,2013-04-08 18:02:00,
2013-04-08 14:12:00,71.0,50.0,30.08,East,85,2.0,10.0,47,0.00,,,0.00,,2013-04-08 18:12:00,
2013-04-08 14:23:00,71.0,50.0,30.08,East,85,2.0,10.0,47,0.00,,,0.00,,2013-04-08 18:23:00,
2013-04-08 14:32:00,71.0,50.0,30.07,East,96,2.0,9.0,48,0.00,,,0.00,,2013-04-08 18:32:00,
2013-04-08 14:42:00,71.0,50.0,30.07,East,96,2.0,9.0,48,0.00,,,0.00,,2013-04-08 18:42:00,
2013-04-08 14:53:00,71.0,50.0,30.07,East,96,2.0,9.0,48,0.00,,,0.00,,2013-04-08 18:53:00,
2013-04-08 15:03:00,71.0,50.0,30.07,East,96,2.0,9.0,48,0.00,,,0.00,,2013-04-08 19:03:00,
2013-04-08 15:33:00,70.0,53.0,30.07,East,80,2.0,6.0,54,0.00,,,0.00,,2013-04-08 19:33:00,
2013-04-08 15:43:00,70.0,53.0,30.07,East,80,2.0,6.0,54,0.00,,,0.00,,2013-04-08 19:43:00,
2013-04-08 15:53:00,70.0,53.0,30.07,East,80,2.0,6.0,54,0.00,,,0.00,,2013-04-08 19:53:00,
2013-04-08 16:02:00,70.0,52.0,30.07,East,89,3.0,8.0,52,0.00,,,0.00,,2013-04-08 20:02:00,
2013-04-08 16:12:00,70.0,52.0,30.07,East,89,3.0,8.0,52,0.00,,,0.00,,2013-04-08 20:12:00,
2013-04-08 16:23:00,70.0,52.0,30.07,East,89,3.0,8.0,52,0.00,,,0.00,,2013-04-08 20:23:00,
2013-04-08 16:33:00,71.0,50.0,30.06,East,99,2.0,7.0,48,0.00,,,0.00,,2013-04-08 20:33:00,
2013-04-08 16:43:00,71.0,50.0,30.06,East,99,2.0,7.0,48,0.00,,,0.00,,2013-04-08 20:43:00,
2013-04-08 16:52:00,71.0,50.0,30.06,East,99,2.0,7.0,48,0.00,,,0.00,,2013-04-08 20:52:00,
2013-04-08 17:02:00,69.0,50.0,30.04,ESE,102,2.0,7.0,51,0.00,,,0.00,,2013-04-08 21:02:00,
2013-04-08 17:12:00,69.0,50.0,30.04,ESE,102,2.0,7.0,51,0.00,,,0.00,,2013-04-08 21:12:00,
2013-04-08 17:22:00,69.0,50.0,30.04,ESE,102,2.0,7.0,51,0.00,,,0.00,,2013-04-08 21:22:00,
2013-04-08 17:33:00,70.0,49.0,30.03,SE,124,3.0,7.0,47,0.00,,,0.00,,2013-04-08 21:33:00,
2013-04-08 17:43:00,70.0,49.0,30.03,SE,124,3.0,7.0,47,0.00,,,0.00,,2013-04-08 21:43:00,
2013-04-08 17:53:00,70.0,49.0,30.03,SE,124,3.0,7.0,47,0.00,,,0.00,,2013-04-08 21:53:00,
2013-04-08 18:03:00,69.0,50.0,30.04,WSW,243,0.0,7.0,50,0.00,,,0.00,,2013-04-08 22:03:00,
2013-04-08 18:13:00,69.0,50.0,30.04,WSW,243,0.0,7.0,50,0.00,,,0.00,,2013-04-08 22:13:00,
2013-04-08 18:23:00,69.0,50.0,30.04,WSW,243,0.0,7.0,50,0.00,,,0.00,,2013-04-08 22:23:00,
2013-04-08 18:32:00,69.0,50.0,30.04,WSW,243,0.0,7.0,50,0.00,,,0.00,,2013-04-08 22:32:00,
2013-04-08 18:43:00,68.0,50.0,30.04,ESE,110,0.0,10.0,52,0.00,,,0.00,,2013-04-08 22:43:00,
2013-04-08 18:53:00,68.0,50.0,30.04,ESE,110,0.0,10.0,52,0.00,,,0.00,,2013-04-08 22:53:00,
2013-04-08 19:02:00,67.0,51.0,30.05,East,92,0.0,3.0,56,0.00,,,0.00,,2013-04-08 23:02:00,
2013-04-08 19:12:00,67.0,51.0,30.05,East,92,0.0,3.0,56,0.00,,,0.00,,2013-04-08 23:12:00,
2013-04-08 19:22:00,67.0,51.0,30.05,East,92,0.0,3.0,56,0.00,,,0.00,,2013-04-08 23:22:00,
2013-04-08 19:32:00,66.0,50.0,30.06,East,88,0.0,3.0,57,0.00,,,0.00,,2013-04-08 23:32:00,
2013-04-08 19:43:00,66.0,50.0,30.06,East,88,0.0,3.0,57,0.00,,,0.00,,2013-04-08 23:43:00,
2013-04-08 19:52:00,66.0,50.0,30.06,East,88,0.0,3.0,57,0.00,,,0.00,,2013-04-08 23:52:00,
2013-04-08 20:02:00,65.0,50.0,30.07,SSW,192,0.0,5.0,58,0.00,,,0.00,,2013-04-09 00:02:00,
2013-04-08 20:12:00,65.0,50.0,30.07,SSW,192,0.0,5.0,58,0.00,,,0.00,,2013-04-09 00:12:00,
2013-04-08 20:22:00,65.0,50.0,30.07,SSW,192,0.0,5.0,58,0.00,,,0.00,,2013-04-09 00:22:00,
2013-04-08 20:32:00,64.0,50.0,30.07,SE,126,0.0,1.0,60,0.00,,,0.00,,2013-04-09 00:32:00,
2013-04-08 20:42:00,64.0,50.0,30.07,SE,126,0.0,1.0,60,0.00,,,0.00,,2013-04-09 00:42:00,
2013-04-08 20:52:00,64.0,50.0,30.07,SE,126,0.0,1.0,60,0.00,,,0.00,,2013-04-09 00:52:00,
2013-04-08 21:03:00,63.0,50.0,30.08,SE,126,0.0,0.0,62,0.00,,,0.00,,2013-04-09 01:03:00,
2013-04-08 21:12:00,63.0,50.0,30.08,SE,126,0.0,0.0,62,0.00,,,0.00,,2013-04-09 01:12:00,
2013-04-08 21:22:00,63.0,50.0,30.08,SE,126,0.0,0.0,62,0.00,,,0.00,,2013-04-09 01:22:00,
2013-04-08 21:34:00,62.0,50.0,30.09,SE,126,0.0,0.0,64,0.00,,,0.00,,2013-04-09 01:34:00,
2013-04-08 21:42:00,62.0,50.0,30.09,SE,126,0.0,0.0,64,0.00,,,0.00,,2013-04-09 01:42:00,
2013-04-08 21:53:00,62.0,50.0,30.09,SE,126,0.0,0.0,64,0.00,,,0.00,,2013-04-09 01:53:00,
2013-04-08 22:02:00,61.0,50.0,30.09,SE,126,0.0,0.0,68,0.00,,,0.00,,2013-04-09 02:02:00,
2013-04-08 22:13:00,61.0,50.0,30.09,SE,126,0.0,0.0,68,0.00,,,0.00,,2013-04-09 02:13:00,
2013-04-08 22:22:00,61.0,50.0,30.09,SE,126,0.0,0.0,68,0.00,,,0.00,,2013-04-09 02:22:00,
2013-04-08 22:33:00,61.0,51.0,30.08,ENE,78,0.0,5.0,69,0.00,,,0.00,,2013-04-09 02:33:00,
2013-04-08 22:43:00,61.0,51.0,30.08,ENE,78,0.0,5.0,69,0.00,,,0.00,,2013-04-09 02:43:00,
2013-04-08 22:52:00,61.0,51.0,30.08,ENE,78,0.0,5.0,69,0.00,,,0.00,,2013-04-09 02:52:00,
2013-04-08 23:02:00,61.0,50.0,30.09,ENE,58,0.0,3.0,68,0.00,,,0.00,,2013-04-09 03:02:00,
2013-04-08 23:12:00,61.0,50.0,30.09,ENE,58,0.0,3.0,68,0.00,,,0.00,,2013-04-09 03:12:00,
2013-04-08 23:22:00,61.0,50.0,30.09,ENE,58,0.0,3.0,68,0.00,,,0.00,,2013-04-09 03:22:00,
2013-04-08 23:33:00,61.0,51.0,30.08,SE,131,0.0,3.0,69,0.00,,,0.00,,2013-04-09 03:33:00,
2013-04-08 23:42:00,60.0,50.0,30.08,ESE,107,0.0,2.0,70,0.00,,,0.00,,2013-04-09 03:42:00,
2013-04-08 23:43:00,61.0,51.0,30.08,SE,131,0.0,3.0,69,0.00,,,0.00,,2013-04-09 03:43:00,
2013-04-08 23:53:00,61.0,51.0,30.08,SE,131,0.0,3.0,69,0.00,,,0.00,,2013-04-09 03:53:00,